Lodgepole, Nebraska
Current Conditions -  °F | °C
As of 10:53 PM on Thursday 27 Nov 2014 (Local Time) from KSNY Reporting Station
Clear Clear  
Wind Chill: -3°   Ceiling: Unl
Heat Index:   Visibility: 10mi
Dew Point: -3°   Wind: 12mph
Humidity: 70%   Direction: 280°W
Pressure: 30"   Gusts: NA
Location:  41.15°N, 102.64°W
Report Text: KSNY 280553Z AUTO 28010KT 10SM CLR 02/M03 A3000 RMK AO2 SLP162 T00171033 10061 21006 58010
Loading
Personal Weather Stations






























Interactive Weather Map New forecast layout! Learn more

10-Day Weather Forecast

Advertisements
Track Severe Weather on mobile